createdAt,value
2018-06-28T00:22:53.127Z,17.14
2018-06-28T00:23:56.872Z,17.11
2018-06-28T00:24:50.902Z,17.08
2018-06-28T00:25:51.031Z,17.10
2018-06-28T00:26:50.897Z,17.04
2018-06-28T00:27:52.088Z,17.00
2018-06-28T00:28:50.953Z,16.98
2018-06-28T00:29:51.073Z,16.98
2018-06-28T00:30:51.047Z,16.98
2018-06-28T00:31:51.190Z,16.98
2018-06-28T00:32:51.008Z,16.95
2018-06-28T00:33:51.140Z,17.03
2018-06-28T00:34:51.065Z,17.03
2018-06-28T00:35:51.162Z,16.93
2018-06-28T00:36:51.068Z,16.95
2018-06-28T00:37:57.825Z,16.98
2018-06-28T00:38:51.138Z,16.90
2018-06-28T00:39:51.788Z,16.92
2018-06-28T00:40:51.162Z,16.98
2018-06-28T00:41:51.319Z,16.95
2018-06-28T00:42:51.194Z,16.86
2018-06-28T00:43:51.337Z,16.88
2018-06-28T00:44:51.223Z,16.81
2018-06-28T00:45:51.237Z,16.81
2018-06-28T00:46:51.248Z,16.90
2018-06-28T00:47:51.271Z,16.93
2018-06-28T00:48:51.367Z,16.74
2018-06-28T00:49:51.296Z,16.83
2018-06-28T00:50:51.380Z,16.88
2018-06-28T00:51:51.331Z,16.88
2018-06-28T00:52:51.483Z,16.88
2018-06-28T00:53:51.375Z,16.80
2018-06-28T00:54:53.569Z,16.83
2018-06-28T00:55:51.402Z,16.80
2018-06-28T00:56:51.417Z,16.68
2018-06-28T00:57:51.515Z,16.77
2018-06-28T00:58:51.445Z,16.67
2018-06-28T00:59:51.541Z,16.65
2018-06-28T01:00:51.449Z,16.74
2018-06-28T01:01:51.552Z,16.77
2018-06-28T01:02:51.482Z,16.77
2018-06-28T01:03:51.639Z,16.71
2018-06-28T01:04:51.546Z,16.63
2018-06-28T01:05:51.690Z,16.67
2018-06-28T01:06:51.546Z,16.62
2018-06-28T01:07:51.583Z,16.65
2018-06-28T01:08:51.682Z,16.60
2018-06-28T01:09:51.597Z,16.67
2018-06-28T01:10:51.708Z,16.67
2018-06-28T01:11:51.658Z,16.53
2018-06-28T01:12:51.728Z,16.63
2018-06-28T01:13:51.665Z,16.59
2018-06-28T01:14:51.839Z,16.62
2018-06-28T01:15:51.694Z,16.50
2018-06-28T01:16:51.860Z,16.50
2018-06-28T01:17:51.739Z,16.55
2018-06-28T01:18:51.854Z,16.50
2018-06-28T01:19:51.756Z,16.52
2018-06-28T01:20:51.888Z,16.49
2018-06-28T01:21:51.784Z,16.44
2018-06-28T01:22:51.913Z,16.49
2018-06-28T01:23:51.820Z,16.48
2018-06-28T01:24:51.889Z,16.48
2018-06-28T01:25:51.836Z,16.49
2018-06-28T01:26:52.027Z,16.50
2018-06-28T01:27:51.875Z,16.35
2018-06-28T01:28:52.024Z,16.44
2018-06-28T01:29:51.951Z,16.37
2018-06-28T01:30:52.054Z,16.30
2018-06-28T01:31:51.970Z,16.41
2018-06-28T01:32:52.075Z,16.40
2018-06-28T01:33:51.980Z,16.31
2018-06-28T01:34:53.123Z,16.35
2018-06-28T01:35:52.016Z,16.30
2018-06-28T01:36:53.099Z,16.34
2018-06-28T01:37:52.023Z,16.31
2018-06-28T01:38:52.085Z,16.37
2018-06-28T01:39:53.236Z,16.27
2018-06-28T01:40:52.081Z,16.33
2018-06-28T01:41:52.235Z,16.15
2018-06-28T01:42:52.124Z,16.25
2018-06-28T01:43:52.215Z,16.26
2018-06-28T01:44:52.182Z,16.22
2018-06-28T01:45:52.185Z,16.20
2018-06-28T01:46:52.230Z,16.11
2018-06-28T01:47:52.236Z,16.14
2018-06-28T01:48:52.203Z,16.11
2018-06-28T01:49:52.379Z,16.15
2018-06-28T01:50:52.259Z,16.11
2018-06-28T01:51:53.408Z,16.15
2018-06-28T01:52:52.344Z,16.16
2018-06-28T01:53:52.418Z,16.09
2018-06-28T01:54:52.329Z,16.09
2018-06-28T01:55:52.485Z,16.07
2018-06-28T01:56:52.337Z,16.07
2018-06-28T01:57:52.453Z,16.01
2018-06-28T01:58:52.392Z,16.01
2018-06-28T01:59:58.382Z,16.00
2018-06-28T02:00:52.393Z,16.01
2018-06-28T02:01:52.427Z,16.01
2018-06-28T02:02:52.559Z,16.04
2018-06-28T02:03:52.450Z,15.96
2018-06-28T02:04:52.563Z,15.85
2018-06-28T02:05:52.465Z,15.94
2018-06-28T02:06:53.669Z,15.96
2018-06-28T02:07:52.504Z,15.79
2018-06-28T02:08:52.606Z,15.79
2018-06-28T02:09:52.534Z,15.79
2018-06-28T02:10:53.240Z,15.86
2018-06-28T02:11:52.574Z,15.79
2018-06-28T02:12:52.752Z,15.76
2018-06-28T02:13:52.616Z,15.84
2018-06-28T02:14:53.780Z,15.82
2018-06-28T02:15:52.688Z,15.79
2018-06-28T02:16:52.760Z,15.68
2018-06-28T02:17:52.694Z,15.75
2018-06-28T02:18:52.801Z,15.84
2018-06-28T02:19:52.713Z,15.78
2018-06-28T02:20:52.791Z,15.70
2018-06-28T02:21:52.743Z,15.78
2018-06-28T02:22:52.907Z,15.72
2018-06-28T02:23:52.771Z,15.67
2018-06-28T02:24:53.951Z,15.67
2018-06-28T02:25:52.805Z,15.70
2018-06-28T02:26:54.996Z,15.70
2018-06-28T02:27:52.824Z,15.66
2018-06-28T02:28:52.964Z,15.59
2018-06-28T02:29:52.848Z,15.60
2018-06-28T02:30:53.988Z,15.60
2018-06-28T02:31:52.869Z,15.56
2018-06-28T02:32:54.024Z,15.57
2018-06-28T02:33:52.920Z,15.56
2018-06-28T02:34:53.095Z,15.56
2018-06-28T02:35:52.939Z,15.52
2018-06-28T02:36:53.085Z,15.48
2018-06-28T02:37:52.980Z,15.52
2018-06-28T02:38:54.142Z,15.45
2018-06-28T02:39:52.997Z,15.48
2018-06-28T02:40:53.075Z,15.45
2018-06-28T02:41:53.048Z,15.51
2018-06-28T02:42:55.848Z,15.43
2018-06-28T02:43:53.097Z,15.36
2018-06-28T02:44:53.195Z,15.35
2018-06-28T02:45:54.882Z,15.38
2018-06-28T02:46:53.269Z,15.45
2018-06-28T02:47:53.128Z,15.39
2018-06-28T02:48:53.333Z,15.36
2018-06-28T02:49:53.158Z,15.38
2018-06-28T02:50:53.233Z,15.39
2018-06-28T02:51:53.205Z,15.30
2018-06-28T02:52:53.236Z,15.27
2018-06-28T02:53:53.322Z,15.30
2018-06-28T02:54:53.237Z,15.36
2018-06-28T02:55:53.354Z,15.30
2018-06-28T02:56:53.283Z,15.28
2018-06-28T02:57:55.335Z,15.26
2018-06-28T02:58:53.322Z,15.21
2018-06-28T03:28:04.380Z,15.06
2018-06-28T03:29:03.125Z,15.05
2018-06-28T03:30:02.529Z,15.20
2018-06-28T03:31:02.607Z,15.08
2018-06-28T03:32:02.586Z,15.09
2018-06-28T03:33:03.103Z,15.15
2018-06-28T03:34:02.539Z,15.06
2018-06-28T03:35:02.503Z,15.09
2018-06-28T03:36:03.627Z,15.08
2018-06-28T03:37:02.533Z,15.17
2018-06-28T03:38:34.448Z,15.06
2018-06-28T03:39:02.584Z,15.20
2018-06-28T03:40:02.606Z,15.17
2018-06-28T03:41:30.501Z,15.21
2018-06-28T03:42:02.626Z,15.17
2018-06-28T03:43:02.660Z,15.20
2018-06-28T03:57:36.259Z,15.20
2018-06-28T03:58:34.240Z,15.24
2018-06-28T03:59:34.194Z,15.26
2018-06-28T04:00:34.277Z,15.23
2018-06-28T04:01:34.283Z,15.28
2018-06-28T04:02:34.281Z,15.28
2018-06-28T04:03:34.215Z,15.27
2018-06-28T04:04:34.254Z,15.31
2018-06-28T04:05:34.248Z,15.36
2018-06-28T04:06:34.406Z,15.39
2018-06-28T04:07:34.261Z,15.30
2018-06-28T04:08:34.420Z,15.38
2018-06-28T04:09:34.349Z,15.38
2018-06-28T04:10:34.415Z,15.36
2018-06-28T04:11:34.373Z,15.46
2018-06-28T04:12:34.443Z,15.43
2018-06-28T04:13:34.384Z,15.52
2018-06-28T04:14:34.463Z,15.49
2018-06-28T04:15:34.404Z,15.48
2018-06-28T04:16:35.485Z,15.46
2018-06-28T04:17:34.436Z,15.52
2018-06-28T04:18:34.462Z,15.54
2018-06-28T04:19:34.584Z,15.57
2018-06-28T04:20:34.484Z,15.57
2018-06-28T04:21:34.594Z,15.57
2018-06-28T04:22:34.514Z,15.59
2018-06-28T04:23:34.537Z,15.63
2018-06-28T04:24:34.603Z,15.79
2018-06-28T04:25:34.553Z,15.74
2018-06-28T04:26:34.629Z,15.81
2018-06-28T04:27:34.693Z,15.81
2018-06-28T04:28:34.745Z,15.81
2018-06-28T04:29:34.692Z,15.74
2018-06-28T04:30:34.765Z,15.89
2018-06-28T04:31:34.660Z,15.86
2018-06-28T04:32:34.778Z,15.74
2018-06-28T04:33:34.678Z,15.84
2018-06-28T04:34:34.784Z,15.81
2018-06-28T04:35:34.713Z,15.81
2018-06-28T04:36:34.795Z,15.94
2018-06-28T04:37:34.752Z,15.85
2018-06-28T04:38:34.805Z,15.97
2018-06-28T04:39:34.741Z,15.84
2018-06-28T04:40:34.781Z,15.99
2018-06-28T04:41:34.975Z,15.99
2018-06-28T04:42:34.816Z,16.04
2018-06-28T04:43:34.969Z,16.06
2018-06-28T04:44:34.834Z,16.12
2018-06-28T04:45:35.007Z,16.15
2018-06-28T04:46:34.867Z,16.23
2018-06-28T04:47:36.022Z,16.31
2018-06-28T04:48:34.900Z,16.35
2018-06-28T04:49:35.033Z,16.33
2018-06-28T04:50:34.924Z,16.40
2018-06-28T04:51:35.009Z,16.40
2018-06-28T04:52:34.955Z,16.45
2018-06-28T04:53:34.968Z,16.48
2018-06-28T04:54:35.107Z,16.62
2018-06-28T04:55:35.049Z,16.63
2018-06-28T04:56:35.135Z,16.62
2018-06-28T04:57:35.065Z,16.73
2018-06-28T04:58:35.152Z,16.74
2018-06-28T04:59:35.055Z,16.85
2018-06-28T05:00:35.174Z,16.90
2018-06-28T05:01:35.120Z,16.83
2018-06-28T05:02:35.175Z,16.95
2018-06-28T05:03:35.141Z,17.00
2018-06-28T05:04:35.194Z,17.04
2018-06-28T05:05:35.160Z,17.13
2018-06-28T05:06:37.287Z,17.10
2018-06-28T05:07:35.205Z,17.25
2018-06-28T05:08:35.189Z,17.25
2018-06-28T05:09:35.210Z,17.32
2018-06-28T05:10:36.378Z,17.36
2018-06-28T05:11:35.250Z,17.44
2018-06-28T05:12:35.342Z,17.44
2018-06-28T05:13:35.279Z,17.53
2018-06-28T05:14:36.405Z,17.54
2018-06-28T05:15:35.315Z,17.63
2018-06-28T05:16:35.375Z,17.66
2018-06-28T05:17:35.314Z,17.67
2018-06-28T05:18:35.517Z,17.76
2018-06-28T05:19:35.367Z,17.82
2018-06-28T05:20:36.554Z,17.87
2018-06-28T05:21:35.383Z,17.92
2018-06-28T05:22:35.415Z,17.88
2018-06-28T05:23:35.422Z,18.04
2018-06-28T05:24:35.556Z,17.97
2018-06-28T05:25:35.514Z,18.02
2018-06-28T05:26:42.204Z,18.04
2018-06-28T05:27:35.632Z,18.07
2018-06-28T05:28:36.576Z,18.07
2018-06-28T05:29:35.510Z,18.17
2018-06-28T05:30:35.681Z,18.24
2018-06-28T05:31:35.583Z,18.28
2018-06-28T05:32:35.707Z,18.34
2018-06-28T05:33:35.588Z,18.33
2018-06-28T05:34:37.896Z,18.33
2018-06-28T05:35:35.726Z,18.43
2018-06-28T05:36:35.734Z,18.43
2018-06-28T05:37:35.750Z,18.54
2018-06-28T05:38:35.776Z,18.58
2018-06-28T05:39:35.655Z,18.62
2018-06-28T05:40:35.869Z,18.65
2018-06-28T05:41:35.717Z,18.58
2018-06-28T05:42:37.808Z,18.70
2018-06-28T05:43:35.757Z,18.64
2018-06-28T05:44:35.905Z,18.68
2018-06-28T05:45:35.769Z,18.74
2018-06-28T05:46:35.904Z,18.76
2018-06-28T05:47:35.934Z,18.76
2018-06-28T05:48:35.831Z,18.84
2018-06-28T05:49:36.953Z,18.82
2018-06-28T05:50:35.832Z,18.90
2018-06-28T05:51:36.959Z,18.83
2018-06-28T05:52:35.885Z,18.97
2018-06-28T05:53:36.048Z,19.11
2018-06-28T05:54:35.884Z,19.02
2018-06-28T05:55:36.055Z,19.13
2018-06-28T05:56:35.942Z,19.17
2018-06-28T05:57:36.074Z,19.21
2018-06-28T05:58:35.961Z,19.32
2018-06-28T05:59:36.098Z,19.38
2018-06-28T06:00:35.964Z,19.40
2018-06-28T06:01:36.091Z,19.42
2018-06-28T06:02:36.003Z,19.39
2018-06-28T06:03:36.107Z,19.40
2018-06-28T06:04:36.042Z,19.50
2018-06-28T06:05:36.241Z,19.53
2018-06-28T06:06:36.060Z,19.51
2018-06-28T06:07:36.066Z,19.51
2018-06-28T06:08:36.255Z,19.53
2018-06-28T06:09:36.115Z,19.63
2018-06-28T06:10:36.264Z,19.69
2018-06-28T06:11:36.135Z,19.72
2018-06-28T06:12:36.276Z,19.79
2018-06-28T06:13:36.174Z,19.75
2018-06-28T06:14:37.337Z,19.73
2018-06-28T06:15:36.205Z,19.80
2018-06-28T06:16:36.293Z,19.88
2018-06-28T06:17:36.231Z,19.84
2018-06-28T06:18:36.408Z,19.84
2018-06-28T06:19:36.248Z,19.86
2018-06-28T06:20:36.451Z,19.98
2018-06-28T06:21:36.325Z,19.95
2018-06-28T06:22:36.443Z,19.95
2018-06-28T06:23:36.325Z,20.05
2018-06-28T06:24:36.456Z,20.03
2018-06-28T06:25:36.338Z,20.10
2018-06-28T06:26:36.476Z,20.16
2018-06-28T06:27:36.389Z,20.21
2018-06-28T06:28:36.482Z,20.23
2018-06-28T06:29:36.401Z,20.21
2018-06-28T06:30:37.519Z,20.21
2018-06-28T06:31:36.432Z,20.28
2018-06-28T06:32:37.635Z,20.34
2018-06-28T06:33:36.478Z,20.38
2018-06-28T06:34:36.627Z,20.41
2018-06-28T06:35:36.489Z,20.46
2018-06-28T06:36:37.672Z,20.47
2018-06-28T06:37:36.544Z,20.50
2018-06-28T06:38:36.652Z,20.53
2018-06-28T06:39:36.546Z,20.66
2018-06-28T06:40:36.685Z,20.69
2018-06-28T06:41:36.586Z,20.66
2018-06-28T06:42:36.797Z,20.80
2018-06-28T06:43:36.629Z,20.84
2018-06-28T06:44:36.827Z,20.89
2018-06-28T06:45:36.643Z,20.80
2018-06-28T06:46:36.652Z,20.91
2018-06-28T06:47:36.677Z,20.93
2018-06-28T06:48:36.720Z,20.93
2018-06-28T06:49:36.711Z,20.91
2018-06-28T06:50:36.848Z,20.99
2018-06-28T06:51:36.731Z,21.06
2018-06-28T06:52:36.755Z,21.04
2018-06-28T06:53:36.913Z,21.11
2018-06-28T06:54:36.780Z,21.17
2018-06-28T06:55:37.876Z,21.11
2018-06-28T06:56:36.804Z,21.16
2018-06-28T06:57:36.948Z,21.17
2018-06-28T06:58:36.837Z,21.24
2018-06-28T06:59:37.973Z,21.27
2018-06-28T07:00:36.864Z,21.24
2018-06-28T07:01:38.011Z,21.32
2018-06-28T07:02:36.899Z,21.38
2018-06-28T07:03:37.024Z,21.34
2018-06-28T07:04:36.922Z,21.29
2018-06-28T07:05:39.055Z,21.42
2018-06-28T07:06:36.947Z,21.53
2018-06-28T07:07:37.125Z,21.59
2018-06-28T07:08:36.996Z,21.63
2018-06-28T07:09:37.147Z,21.64
2018-06-28T07:10:37.018Z,21.66
2018-06-28T07:11:37.138Z,21.71
2018-06-28T07:12:37.144Z,21.78
2018-06-28T07:13:37.092Z,21.78
2018-06-28T07:14:37.163Z,21.90
2018-06-28T07:15:37.120Z,21.88
2018-06-28T07:16:37.176Z,21.91
2018-06-28T07:17:37.132Z,21.97
2018-06-28T07:18:37.292Z,21.94
2018-06-28T07:19:37.245Z,21.98
2018-06-28T07:20:37.328Z,22.02
2018-06-28T07:21:37.187Z,22.09
2018-06-28T07:22:38.355Z,22.07
2018-06-28T07:23:37.245Z,22.02
2018-06-28T07:24:37.330Z,22.09
2018-06-28T07:25:37.251Z,22.16
2018-06-28T07:26:37.338Z,22.10
2018-06-28T07:27:37.267Z,22.07
2018-06-28T07:28:38.580Z,22.14
2018-06-28T07:29:37.317Z,22.20
2018-06-28T07:30:37.468Z,22.19
2018-06-28T07:31:37.331Z,22.27
2018-06-28T07:32:37.497Z,22.34
2018-06-28T07:33:37.391Z,22.35
2018-06-28T07:34:37.487Z,22.39
2018-06-28T07:35:37.437Z,22.38
2018-06-28T07:36:37.528Z,22.35
2018-06-28T07:37:37.436Z,22.44
2018-06-28T07:38:37.531Z,22.38
2018-06-28T07:39:37.490Z,22.35
2018-06-28T07:40:37.470Z,22.43
2018-06-28T07:41:37.495Z,22.50
2018-06-28T07:42:37.504Z,22.52
2018-06-28T07:43:37.529Z,22.57
2018-06-28T07:44:37.558Z,22.57
2018-06-28T07:45:37.633Z,22.53
2018-06-28T07:46:37.563Z,22.57
2018-06-28T07:47:38.650Z,22.57
2018-06-28T07:48:37.606Z,22.59
2018-06-28T07:49:37.707Z,22.65
2018-06-28T07:50:37.605Z,22.72
2018-06-28T07:51:38.751Z,22.72
2018-06-28T07:52:37.653Z,22.80
2018-06-28T07:53:37.753Z,22.80
2018-06-28T07:54:37.728Z,22.89
2018-06-28T07:55:37.697Z,22.87
2018-06-28T07:56:37.770Z,23.01
2018-06-28T07:57:37.719Z,23.01
2018-06-28T07:58:37.783Z,23.04
2018-06-28T07:59:37.739Z,23.11
2018-06-28T08:00:37.762Z,23.14
2018-06-28T08:01:37.813Z,23.09
2018-06-28T08:02:37.823Z,23.15
2018-06-28T08:03:37.807Z,23.19
2018-06-28T08:04:37.839Z,23.38
2018-06-28T08:05:37.831Z,23.31
2018-06-28T08:06:38.985Z,23.24
2018-06-28T08:07:37.863Z,23.22
2018-06-28T08:08:38.066Z,23.26
2018-06-28T08:09:38.013Z,23.35
2018-06-28T08:10:44.772Z,23.43
2018-06-28T08:11:37.932Z,23.47
2018-06-28T08:12:48.867Z,23.45
2018-06-28T08:13:37.962Z,23.53
2018-06-28T08:14:38.107Z,23.50
2018-06-28T08:15:38.011Z,23.55
2018-06-28T08:16:38.009Z,23.50
2018-06-28T08:17:38.103Z,23.61
2018-06-28T08:18:38.043Z,23.61
2018-06-28T08:19:38.350Z,23.55
2018-06-28T08:20:38.068Z,23.58
2018-06-28T08:21:38.162Z,23.65
2018-06-28T08:22:38.096Z,23.70
2018-06-28T08:23:38.136Z,23.67
2018-06-28T08:24:38.144Z,23.64
2018-06-28T08:25:38.168Z,23.70
2018-06-28T08:26:38.177Z,23.79
2018-06-28T08:27:38.195Z,23.72
2018-06-28T08:28:38.208Z,23.77
2018-06-28T08:29:38.323Z,23.79
2018-06-28T08:30:38.212Z,23.79
2018-06-28T08:31:38.321Z,23.72
2018-06-28T08:32:38.244Z,23.85
2018-06-28T08:33:40.376Z,23.80
2018-06-28T08:34:38.272Z,23.87
2018-06-28T08:35:38.310Z,23.89
2018-06-28T08:36:38.303Z,23.98
2018-06-28T08:37:38.323Z,23.97
2018-06-28T08:38:38.340Z,23.98
2018-06-28T08:39:38.343Z,23.97
2018-06-28T08:40:38.364Z,24.12
2018-06-28T08:41:38.491Z,24.13
2018-06-28T08:42:38.418Z,24.19
2018-06-28T08:43:38.583Z,24.24
2018-06-28T08:44:38.430Z,24.26
2018-06-28T08:53:41.498Z,24.47
2018-06-28T08:54:39.575Z,24.53
2018-06-28T08:55:39.647Z,24.61
2018-06-28T08:56:39.676Z,24.52
2018-06-28T08:57:39.718Z,24.64
2018-06-28T08:58:40.701Z,24.60
2018-06-28T08:59:39.994Z,24.59
2018-06-28T09:00:39.785Z,24.61
2018-06-28T09:01:39.691Z,24.69
2018-06-28T09:02:39.888Z,24.67
2018-06-28T09:03:39.753Z,24.73
2018-06-28T09:04:39.825Z,24.61
2018-06-28T09:05:39.774Z,24.67
2018-06-28T09:06:39.768Z,24.71
2018-06-28T09:07:39.780Z,24.85
2018-06-28T09:08:39.805Z,24.77
2018-06-28T09:09:39.812Z,24.85
2018-06-28T09:10:40.913Z,24.92
2018-06-28T09:11:39.855Z,24.91
2018-06-28T09:12:40.001Z,25.05
2018-06-28T09:13:39.890Z,25.07
2018-06-28T09:14:40.017Z,25.09
2018-06-28T09:15:39.919Z,25.19
2018-06-28T09:16:39.948Z,25.22
2018-06-28T09:17:40.004Z,25.24
2018-06-28T09:18:39.965Z,25.31
2018-06-28T09:19:40.016Z,25.31
2018-06-28T09:20:40.078Z,25.32
2018-06-28T09:21:40.018Z,25.28
2018-06-28T09:22:40.065Z,25.19
2018-06-28T09:23:40.063Z,25.15
2018-06-28T09:24:40.055Z,25.01
2018-06-28T09:25:40.186Z,25.07
2018-06-28T09:26:40.100Z,25.05
2018-06-28T09:27:40.192Z,25.10
2018-06-28T09:28:40.123Z,25.32
2018-06-28T09:29:40.215Z,25.32
2018-06-28T09:30:40.170Z,25.38
2018-06-28T09:31:40.258Z,25.49
2018-06-28T09:32:40.198Z,25.50
2018-06-28T09:33:40.238Z,25.49
2018-06-28T09:34:40.237Z,25.59
2018-06-28T09:35:40.282Z,25.56
2018-06-28T09:36:40.252Z,25.53
2018-06-28T09:37:40.392Z,25.77
2018-06-28T09:38:40.287Z,25.75
2018-06-28T09:39:40.308Z,25.72
2018-06-28T09:40:40.416Z,25.72
2018-06-28T09:41:40.348Z,25.89
2018-06-28T09:42:41.488Z,25.79
2018-06-28T09:43:40.360Z,25.90
2018-06-28T09:44:40.465Z,25.89
2018-06-28T09:45:40.401Z,25.97
2018-06-28T09:46:40.448Z,26.08
2018-06-28T09:47:40.450Z,26.15
2018-06-28T09:48:40.578Z,26.18
2018-06-28T09:49:40.451Z,26.24
2018-06-28T09:50:40.583Z,26.18
2018-06-28T09:51:40.478Z,26.09
2018-06-28T09:52:40.569Z,26.12
2018-06-28T09:53:40.535Z,26.12
2018-06-28T09:54:40.603Z,26.12
2018-06-28T09:55:40.584Z,26.15
2018-06-28T09:56:41.629Z,26.27
2018-06-28T09:57:40.594Z,26.37
2018-06-28T09:58:40.738Z,26.40
2018-06-28T09:59:40.639Z,26.49
2018-06-28T10:00:40.660Z,26.72
2018-06-28T10:01:40.738Z,26.68
2018-06-28T10:02:40.667Z,26.83
2018-06-28T10:03:40.699Z,26.89
2018-06-28T10:04:40.712Z,26.91
2018-06-28T10:05:40.752Z,26.91
2018-06-28T10:06:40.755Z,26.89
2018-06-28T10:07:40.784Z,26.98
2018-06-28T10:08:40.776Z,26.99
2018-06-28T10:09:40.811Z,27.19
2018-06-28T10:10:40.820Z,27.33
2018-06-28T10:11:40.865Z,27.54
2018-06-28T10:12:40.909Z,27.59
2018-06-28T10:13:40.871Z,27.67
2018-06-28T10:14:40.945Z,27.71
2018-06-28T10:15:40.894Z,27.70
2018-06-28T10:16:40.931Z,27.73
2018-06-28T10:18:09.666Z,27.77
2018-06-28T10:18:41.002Z,27.77
2018-06-28T10:20:08.565Z,27.70
2018-06-28T10:20:40.979Z,27.61
2018-06-28T10:21:41.012Z,27.33
2018-06-28T10:22:47.591Z,27.32
2018-06-28T10:23:41.093Z,27.21
2018-06-28T10:24:41.104Z,27.26
2018-06-28T11:02:12.727Z,27.39
2018-06-28T11:03:10.881Z,27.24
2018-06-28T11:04:10.822Z,27.09
2018-06-28T11:05:10.864Z,27.11
2018-06-28T11:06:10.896Z,27.23
2018-06-28T11:07:10.959Z,27.26
2018-06-28T11:08:10.898Z,27.41
2018-06-28T11:09:10.934Z,27.48
2018-06-28T11:10:10.922Z,27.53
2018-06-28T11:11:10.943Z,27.57
2018-06-28T11:12:11.040Z,27.64
2018-06-28T11:13:10.961Z,27.85
2018-06-28T11:14:11.058Z,27.86
2018-06-28T11:15:11.008Z,27.77
2018-06-28T11:16:11.081Z,27.74
2018-06-28T11:17:11.051Z,27.67
2018-06-28T11:18:11.067Z,27.62
2018-06-28T11:19:11.084Z,27.59
2018-06-28T11:20:11.102Z,27.58
2018-06-28T11:21:11.146Z,27.61
2018-06-28T11:22:11.140Z,27.39
2018-06-28T11:23:11.173Z,27.46
2018-06-28T11:24:11.194Z,27.62
2018-06-28T11:25:11.259Z,27.53
2018-06-28T11:26:11.240Z,27.47
2018-06-28T11:27:11.269Z,27.43
2018-06-28T11:28:11.271Z,27.33
2018-06-28T11:29:11.304Z,27.26
2018-06-28T11:30:11.394Z,27.36
2018-06-28T11:31:11.317Z,27.46
2018-06-28T11:32:11.339Z,27.61
2018-06-28T11:33:11.343Z,27.67
2018-06-28T11:34:11.474Z,27.62
2018-06-28T11:35:11.404Z,27.71
2018-06-28T11:36:11.403Z,27.74
2018-06-28T11:37:11.420Z,27.54
2018-06-28T11:38:11.430Z,27.61
2018-06-28T11:39:11.472Z,27.66
2018-06-28T11:40:11.523Z,27.80
2018-06-28T11:41:11.499Z,27.84
2018-06-28T11:42:11.543Z,27.79
2018-06-28T11:43:11.577Z,27.84
2018-06-28T11:44:11.561Z,28.01
2018-06-28T11:45:11.570Z,28.13
2018-06-28T11:46:11.587Z,28.10
2018-06-28T11:47:11.609Z,28.17
2018-06-28T11:48:11.606Z,28.29
2018-06-28T11:49:11.645Z,28.29
2018-06-28T11:50:11.647Z,28.21
2018-06-28T11:51:11.742Z,27.94
2018-06-28T11:52:11.725Z,27.59
2018-06-28T11:53:11.712Z,27.61
2018-06-28T11:54:11.741Z,27.41
2018-06-28T11:55:11.788Z,27.32
2018-06-28T11:56:11.801Z,27.24
2018-06-28T11:57:11.809Z,27.39
2018-06-28T11:58:11.814Z,27.32
2018-06-28T11:59:11.811Z,27.48
2018-06-28T12:00:11.864Z,27.51
2018-06-28T12:01:11.861Z,27.61
2018-06-28T12:02:11.908Z,27.84
2018-06-28T12:03:11.919Z,28.06
2018-06-28T12:04:11.915Z,28.16
2018-06-28T12:05:11.946Z,28.21
2018-06-28T12:06:11.961Z,28.19
2018-06-28T12:07:11.966Z,28.21
2018-06-28T12:08:14.077Z,28.22
2018-06-28T12:09:12.039Z,28.25
2018-06-28T12:10:12.024Z,28.19
2018-06-28T12:11:12.052Z,28.25
2018-06-28T12:12:12.061Z,28.25
2018-06-28T12:13:12.098Z,28.03
2018-06-28T12:14:12.110Z,27.96
2018-06-28T12:15:12.115Z,27.92
2018-06-28T12:16:12.188Z,28.04
2018-06-28T12:17:12.140Z,28.11
2018-06-28T12:18:12.370Z,28.28
2018-06-28T12:19:12.196Z,28.36
2018-06-28T12:20:18.823Z,28.38
2018-06-28T12:21:12.234Z,28.38
2018-06-28T12:22:25.373Z,28.40
2018-06-28T12:23:12.281Z,28.43
2018-06-28T12:24:12.323Z,28.63
2018-06-28T12:25:12.351Z,28.69
2018-06-28T12:26:12.401Z,28.69
2018-06-28T12:27:12.339Z,28.73
2018-06-28T12:28:13.402Z,28.93
2018-06-28T12:29:12.385Z,29.01
2018-06-28T12:30:38.306Z,29.07
2018-06-28T12:31:12.433Z,29.19
2018-06-28T12:32:14.575Z,29.38
2018-06-28T12:33:12.468Z,29.37
2018-06-28T12:34:24.300Z,29.34
2018-06-28T12:35:12.532Z,29.41
2018-06-28T12:36:19.288Z,29.44
2018-06-28T12:37:12.574Z,29.44
2018-06-28T12:38:34.686Z,29.43
2018-06-28T12:39:12.624Z,29.44
2018-06-28T12:40:33.683Z,29.52
2018-06-28T12:41:12.634Z,29.59
2018-06-28T12:42:45.340Z,29.74
2018-06-28T12:43:12.658Z,29.78
2018-06-28T12:44:12.684Z,29.82
2018-06-28T12:45:18.307Z,29.89
2018-06-28T12:46:12.696Z,29.75
2018-06-28T12:47:38.347Z,29.63
2018-06-28T12:48:12.786Z,29.44
2018-06-28T12:49:18.372Z,29.29
2018-06-28T12:50:12.786Z,29.20
2018-06-28T12:51:14.906Z,29.11
2018-06-28T12:52:12.845Z,29.13
2018-06-28T12:53:23.848Z,29.15
2018-06-28T12:54:12.913Z,29.07
2018-06-28T12:55:16.059Z,29.08
2018-06-28T12:56:12.910Z,29.04
2018-06-28T12:57:13.026Z,29.11
2018-06-28T12:58:12.965Z,29.03
2018-06-28T12:59:15.044Z,29.07
2018-06-28T13:00:12.956Z,28.97
2018-06-28T13:01:13.036Z,29.15
2018-06-28T13:02:36.889Z,29.28
2018-06-28T13:03:13.028Z,29.33
2018-06-28T13:04:13.036Z,29.29
2018-06-28T13:05:17.835Z,29.18
2018-06-28T13:06:13.090Z,29.06
2018-06-28T13:07:13.158Z,28.85
2018-06-28T13:08:13.131Z,28.75
2018-06-28T13:09:13.278Z,28.77
2018-06-28T13:10:13.199Z,28.68
2018-06-28T13:11:14.272Z,28.63
2018-06-28T13:12:13.195Z,28.63
2018-06-28T13:13:15.318Z,28.58
2018-06-28T13:14:13.244Z,28.58
2018-06-28T13:15:17.812Z,28.53
2018-06-28T13:16:13.267Z,28.60
2018-06-28T13:17:18.402Z,28.70
2018-06-28T13:18:13.364Z,28.77
2018-06-28T13:19:14.364Z,28.75
2018-06-28T13:20:13.466Z,28.95
2018-06-28T13:21:30.394Z,28.88
2018-06-28T13:22:13.429Z,28.93
2018-06-28T13:23:28.359Z,28.90
2018-06-28T13:24:13.434Z,28.80
2018-06-28T13:25:34.588Z,28.95
2018-06-28T13:26:13.496Z,28.93
2018-06-28T13:27:13.523Z,29.03
2018-06-28T13:28:13.650Z,29.06
2018-06-28T13:29:13.523Z,29.22
2018-06-28T13:30:20.578Z,29.15
2018-06-28T13:31:13.590Z,29.11
2018-06-28T13:32:24.316Z,29.06
2018-06-28T13:33:13.634Z,29.18
2018-06-28T13:34:14.701Z,29.25
2018-06-28T13:35:13.646Z,29.33
2018-06-28T13:44:17.768Z,29.08
2018-06-28T13:45:31.478Z,29.06
2018-06-28T13:46:15.848Z,28.93
2018-06-28T13:47:15.846Z,29.01
2018-06-28T13:48:15.852Z,29.00
2018-06-28T13:49:15.870Z,29.08
2018-06-28T13:50:15.857Z,29.20
2018-06-28T13:51:16.027Z,29.22
2018-06-28T13:52:15.940Z,29.25
2018-06-28T13:53:16.062Z,29.23
2018-06-28T13:54:15.968Z,29.26
2018-06-28T13:55:16.071Z,29.23
2018-06-28T13:56:16.027Z,29.26
2018-06-28T13:57:16.050Z,29.25
2018-06-28T13:58:16.034Z,29.44
2018-06-28T13:59:16.157Z,29.29
2018-06-28T14:00:16.069Z,29.41
2018-06-28T14:01:16.177Z,29.47
2018-06-28T14:02:16.108Z,29.41
2018-06-28T14:03:16.212Z,29.43
2018-06-28T14:04:16.151Z,29.41
2018-06-28T14:05:16.182Z,29.45
2018-06-28T14:06:16.211Z,29.40
2018-06-28T14:07:16.297Z,29.52
2018-06-28T14:08:16.266Z,29.53
2018-06-28T14:09:16.345Z,29.45
2018-06-28T14:10:16.318Z,29.44
2018-06-28T14:11:16.371Z,29.49
2018-06-28T14:12:16.337Z,29.55
2018-06-28T14:13:16.361Z,29.65
2018-06-28T14:14:16.372Z,29.63
2018-06-28T14:15:16.457Z,29.77
2018-06-28T14:16:16.363Z,29.70
2018-06-28T14:17:18.456Z,29.72
2018-06-28T14:18:16.416Z,29.77
2018-06-28T14:19:18.541Z,29.45
2018-06-28T14:20:16.463Z,29.45
2018-06-28T14:21:16.551Z,29.38
2018-06-28T14:22:16.520Z,29.25
2018-06-28T14:23:16.643Z,29.25
2018-06-28T14:24:16.541Z,29.20
2018-06-28T14:25:16.646Z,29.25
2018-06-28T14:26:16.571Z,29.23
2018-06-28T14:27:16.624Z,29.07
2018-06-28T14:28:16.647Z,28.88
2018-06-28T14:29:16.634Z,28.78
2018-06-28T14:30:17.709Z,28.72
2018-06-28T14:31:16.668Z,28.75
2018-06-28T14:32:16.792Z,28.77
2018-06-28T14:33:16.732Z,28.73
2018-06-28T14:34:16.793Z,28.75
2018-06-28T14:35:16.767Z,28.62
2018-06-28T14:36:17.864Z,28.72
2018-06-28T14:37:16.815Z,29.00
2018-06-28T14:38:16.967Z,28.96
2018-06-28T14:39:16.852Z,29.03
2018-06-28T14:40:16.959Z,29.07
2018-06-28T14:41:16.904Z,29.11
2018-06-28T14:42:17.956Z,29.11
2018-06-28T14:43:16.916Z,29.15
2018-06-28T14:52:49.881Z,28.41
2018-06-28T14:53:50.973Z,28.56
2018-06-28T15:33:13.549Z,28.77
2018-06-28T15:34:12.415Z,28.77
2018-06-28T15:35:11.407Z,28.63
2018-06-28T15:36:22.415Z,28.73